createdAt,value
2022-10-09T00:01:20.607Z,94.65
2022-10-09T00:04:29.219Z,97.72
2022-10-09T00:07:38.248Z,92.22
2022-10-09T00:10:48.191Z,116.60
2022-10-09T00:13:57.745Z,107.47
2022-10-09T00:17:06.941Z,117.68
2022-10-09T00:20:15.675Z,101.70
2022-10-09T00:23:25.653Z,100.55
2022-10-09T00:26:33.799Z,115.15
2022-10-09T00:29:43.415Z,105.10
2022-10-09T00:32:52.446Z,92.40
2022-10-09T00:36:00.451Z,96.55
2022-10-09T00:39:08.257Z,102.90
2022-10-09T00:42:16.968Z,117.70
2022-10-09T00:45:26.220Z,95.07
2022-10-09T00:48:31.169Z,98.22
2022-10-09T00:51:35.907Z,95.68
2022-10-09T00:54:42.303Z,94.30
2022-10-09T00:57:47.686Z,95.70
2022-10-09T01:00:50.887Z,80.78
2022-10-09T01:03:54.821Z,108.85
2022-10-09T01:07:42.295Z,82.53
2022-10-09T01:11:19.505Z,80.03
2022-10-09T01:14:34.485Z,87.40
2022-10-09T01:17:50.193Z,78.50
2022-10-09T01:21:01.709Z,55.25
2022-10-09T01:24:26.688Z,46.55
2022-10-09T01:27:31.330Z,50.33
2022-10-09T01:30:36.470Z,59.03
2022-10-09T01:33:40.312Z,43.55
2022-10-09T01:36:45.501Z,38.33
2022-10-09T01:39:50.164Z,38.40
2022-10-09T01:42:54.956Z,34.83
2022-10-09T01:46:28.260Z,46.10
2022-10-09T01:49:46.949Z,40.13
2022-10-09T01:52:56.910Z,36.15
2022-10-09T01:56:07.307Z,40.60
2022-10-09T01:59:16.035Z,39.47
2022-10-09T02:02:21.454Z,50.80
2022-10-09T02:05:30.383Z,34.35
2022-10-09T02:08:37.310Z,34.63
2022-10-09T02:11:44.560Z,37.25
2022-10-09T02:14:48.046Z,33.30
2022-10-09T02:17:54.722Z,37.13
2022-10-09T02:21:07.138Z,26.13
2022-10-09T02:24:16.762Z,28.52
2022-10-09T02:27:25.694Z,28.15
2022-10-09T02:30:40.009Z,34.88
2022-10-09T02:33:43.091Z,26.88
2022-10-09T02:36:46.617Z,23.35
2022-10-09T02:39:49.898Z,18.83
2022-10-09T02:42:53.139Z,21.23
2022-10-09T02:45:56.477Z,22.38
2022-10-09T02:49:07.043Z,18.15
2022-10-09T02:52:11.297Z,15.77
2022-10-09T02:55:15.566Z,28.10
2022-10-09T02:58:20.020Z,23.83
2022-10-09T03:01:23.787Z,23.52
2022-10-09T03:07:54.863Z,21.58
2022-10-09T03:10:58.445Z,19.02
2022-10-09T03:14:02.123Z,16.55
2022-10-09T03:17:05.454Z,16.50
2022-10-09T03:20:09.714Z,17.10
2022-10-09T03:23:13.645Z,14.85
2022-10-09T03:26:20.132Z,15.77
2022-10-09T03:29:23.755Z,18.15
2022-10-09T03:32:27.887Z,6.75
2022-10-09T03:35:31.630Z,9.70
2022-10-09T03:38:35.995Z,8.65
2022-10-09T03:41:39.823Z,3.90
2022-10-09T03:44:42.958Z,4.30
2022-10-09T03:47:46.358Z,3.25
2022-10-09T03:50:51.401Z,4.65
2022-10-09T03:53:54.856Z,3.45
2022-10-09T03:56:58.676Z,4.97
2022-10-09T04:00:02.797Z,3.83
2022-10-09T04:03:07.265Z,3.53
2022-10-09T04:06:10.523Z,7.70
2022-10-09T04:09:14.138Z,6.65
2022-10-09T04:12:17.141Z,5.05
2022-10-09T04:15:20.859Z,4.47
2022-10-09T04:18:26.259Z,5.07
2022-10-09T04:21:29.503Z,2.85
2022-10-09T04:24:32.929Z,2.70
2022-10-09T04:27:36.587Z,5.40
2022-10-09T04:30:43.494Z,3.85
2022-10-09T04:33:47.508Z,3.88
2022-10-09T04:36:50.612Z,2.97
2022-10-09T04:40:06.194Z,2.75
2022-10-09T04:43:10.192Z,3.90
2022-10-09T04:46:15.393Z,6.10
2022-10-09T04:55:58.959Z,2.58
2022-10-09T04:59:04.736Z,7.97
2022-10-09T05:02:23.039Z,3.80
2022-10-09T05:17:17.901Z,6.07
2022-10-09T05:20:25.989Z,3.97
2022-10-09T05:23:29.491Z,3.63
2022-10-09T05:26:34.087Z,4.65
2022-10-09T05:29:37.552Z,3.95
2022-10-09T05:32:43.235Z,3.03
2022-10-09T05:35:58.198Z,2.85
2022-10-09T05:39:04.072Z,3.42
2022-10-09T05:42:07.674Z,12.27
2022-10-09T05:45:11.912Z,4.18
2022-10-09T05:48:15.509Z,6.03
2022-10-09T05:51:28.111Z,2.38
2022-10-09T05:54:31.998Z,5.32
2022-10-09T05:57:35.215Z,3.10
2022-10-09T06:00:39.637Z,3.08
2022-10-09T06:03:43.215Z,4.20
2022-10-09T06:06:49.238Z,7.20
2022-10-09T06:09:52.911Z,6.32
2022-10-09T06:12:57.644Z,3.85
2022-10-09T06:16:01.221Z,3.00
2022-10-09T06:19:06.081Z,3.53
2022-10-09T06:22:08.983Z,3.42
2022-10-09T06:25:12.345Z,3.85
2022-10-09T06:28:15.325Z,3.40
2022-10-09T06:31:22.576Z,5.72
2022-10-09T06:34:26.297Z,3.28
2022-10-09T06:37:32.458Z,3.60
2022-10-09T06:40:37.579Z,5.55
2022-10-09T06:43:42.129Z,3.10
2022-10-09T06:46:49.451Z,7.85
2022-10-09T06:49:53.195Z,4.28
2022-10-09T06:52:57.361Z,9.73
2022-10-09T06:56:01.429Z,4.65
2022-10-09T06:59:06.776Z,3.85
2022-10-09T07:02:10.738Z,4.20
2022-10-09T07:05:14.546Z,4.63
2022-10-09T07:08:18.085Z,6.22
2022-10-09T07:11:34.716Z,5.78
2022-10-09T07:14:38.718Z,7.78
2022-10-09T07:17:41.713Z,5.90
2022-10-09T07:20:44.984Z,6.10
2022-10-09T07:23:49.102Z,3.63
2022-10-09T07:26:53.037Z,4.70
2022-10-09T07:29:56.256Z,6.05
2022-10-09T07:33:00.352Z,7.72
2022-10-09T07:36:05.375Z,5.93
2022-10-09T07:39:09.687Z,7.68
2022-10-09T07:42:13.289Z,9.38
2022-10-09T07:45:16.645Z,8.63
2022-10-09T07:48:20.350Z,14.85
2022-10-09T07:51:29.605Z,5.30
2022-10-09T07:54:33.247Z,4.97
2022-10-09T07:57:36.831Z,5.78
2022-10-09T08:00:40.320Z,4.70
2022-10-09T08:03:43.923Z,4.95
2022-10-09T08:06:48.457Z,4.65
2022-10-09T08:09:53.572Z,7.13
2022-10-09T08:12:58.049Z,9.98
2022-10-09T08:16:01.099Z,4.40
2022-10-09T08:19:05.522Z,5.13
2022-10-09T08:22:09.222Z,4.07
2022-10-09T08:25:12.660Z,10.02
2022-10-09T08:28:15.747Z,7.15
2022-10-09T08:31:19.483Z,8.27
2022-10-09T08:34:22.462Z,8.80
2022-10-09T08:37:26.108Z,11.07
2022-10-09T08:40:47.198Z,11.30
2022-10-09T08:43:58.483Z,5.78
2022-10-09T08:47:14.076Z,7.07
2022-10-09T08:50:25.933Z,9.60
2022-10-09T08:53:47.483Z,11.60
2022-10-09T08:56:53.404Z,10.82
2022-10-09T08:59:58.144Z,14.55
2022-10-09T09:03:40.232Z,14.35
2022-10-09T09:07:09.884Z,13.70
2022-10-09T09:10:30.975Z,16.35
2022-10-09T09:13:44.841Z,25.27
2022-10-09T09:16:59.426Z,23.80
2022-10-09T09:20:27.209Z,24.00
2022-10-09T09:23:37.974Z,36.13
2022-10-09T09:26:46.013Z,45.92
2022-10-09T09:29:57.423Z,35.53
2022-10-09T09:33:26.418Z,37.53
2022-10-09T09:36:43.241Z,41.38
2022-10-09T09:43:22.899Z,61.75
2022-10-09T09:46:30.462Z,25.75
2022-10-09T09:49:34.157Z,18.15
2022-10-09T09:52:42.601Z,14.88
2022-10-09T09:55:46.405Z,16.65
2022-10-09T09:58:53.992Z,14.80
2022-10-09T10:02:07.582Z,18.75
2022-10-09T10:05:26.758Z,13.45
2022-10-09T10:08:31.691Z,18.08
2022-10-09T10:11:36.660Z,14.75
2022-10-09T10:14:51.423Z,18.70
2022-10-09T10:18:05.533Z,22.15
2022-10-09T10:21:20.180Z,14.18
2022-10-09T10:24:29.282Z,22.15
2022-10-09T10:27:43.388Z,12.48
2022-10-09T10:30:48.975Z,21.65
2022-10-09T10:33:56.473Z,13.70
2022-10-09T10:37:29.712Z,14.35
2022-10-09T10:40:43.034Z,12.02
2022-10-09T10:43:51.946Z,11.18
2022-10-09T10:47:03.390Z,8.60
2022-10-09T10:50:14.481Z,25.17
2022-10-09T10:53:26.930Z,8.43
2022-10-09T10:56:41.561Z,10.27
2022-10-09T11:00:04.963Z,6.65
2022-10-09T11:03:26.923Z,11.57
2022-10-09T11:06:56.564Z,10.35
2022-10-09T11:10:19.903Z,9.27
2022-10-09T11:13:42.869Z,11.80
2022-10-09T11:17:01.898Z,9.73
2022-10-09T11:20:08.387Z,12.40
2022-10-09T11:23:15.053Z,15.60
2022-10-09T11:27:03.752Z,24.02
2022-10-09T11:30:14.042Z,34.22
2022-10-09T11:33:30.094Z,41.92
2022-10-09T11:36:51.683Z,48.13
2022-10-09T11:39:57.294Z,29.45
2022-10-09T11:43:26.858Z,37.17
2022-10-09T11:46:35.978Z,42.83
2022-10-09T11:49:53.315Z,50.88
2022-10-09T11:53:27.076Z,52.53
2022-10-09T11:56:35.481Z,37.92
2022-10-09T11:59:43.067Z,49.85
2022-10-09T12:02:59.383Z,74.05
2022-10-09T12:06:13.253Z,100.10
2022-10-09T12:09:27.121Z,94.35
2022-10-09T12:12:33.200Z,55.90
2022-10-09T12:15:50.849Z,97.03
2022-10-09T12:18:54.768Z,89.40
2022-10-09T12:22:17.946Z,76.05
2022-10-09T12:25:39.234Z,37.42
2022-10-09T12:28:50.982Z,45.88
2022-10-09T12:31:59.419Z,49.55
2022-10-09T12:35:13.407Z,60.80
2022-10-09T12:38:28.219Z,71.40
2022-10-09T12:41:34.962Z,68.13
2022-10-09T12:44:41.414Z,80.32
2022-10-09T12:47:45.551Z,93.77
2022-10-09T12:50:50.339Z,62.88
2022-10-09T12:53:54.764Z,45.80
2022-10-09T12:56:59.640Z,45.78
2022-10-09T13:00:03.469Z,71.00
2022-10-09T13:03:07.543Z,58.42
2022-10-09T13:06:29.686Z,53.35
2022-10-09T13:09:39.847Z,56.55
2022-10-09T13:12:58.939Z,66.32
2022-10-09T13:16:10.289Z,65.43
2022-10-09T13:19:27.614Z,64.68
2022-10-09T13:22:33.673Z,61.72
2022-10-09T13:25:43.961Z,62.55
2022-10-09T13:28:48.219Z,60.47
2022-10-09T13:31:51.555Z,52.08
2022-10-09T13:34:56.162Z,46.90
2022-10-09T13:38:00.004Z,48.15
2022-10-09T13:41:04.132Z,54.50
2022-10-09T13:44:07.762Z,47.58
2022-10-09T13:47:11.979Z,64.97
2022-10-09T13:50:16.219Z,75.65
2022-10-09T13:53:19.912Z,69.70
2022-10-09T13:56:23.799Z,65.50
2022-10-09T13:59:27.935Z,72.28
2022-10-09T14:02:31.334Z,70.47
2022-10-09T14:05:35.305Z,70.90
2022-10-09T14:08:38.635Z,60.55
2022-10-09T14:11:42.917Z,60.97
2022-10-09T14:14:46.365Z,65.10
2022-10-09T14:17:50.636Z,77.57
2022-10-09T14:20:54.658Z,64.72
2022-10-09T14:24:00.284Z,82.50
2022-10-09T14:27:04.198Z,73.88
2022-10-09T14:30:08.527Z,71.95
2022-10-09T14:33:13.433Z,55.38
2022-10-09T14:36:20.698Z,61.28
2022-10-09T14:39:24.826Z,64.13
2022-10-09T14:42:28.418Z,63.90
2022-10-09T14:45:33.486Z,54.08
2022-10-09T14:48:37.363Z,56.42
2022-10-09T14:51:42.242Z,58.33
2022-10-09T14:54:45.468Z,56.05
2022-10-09T14:57:48.400Z,47.55
2022-10-09T15:00:51.660Z,53.10
2022-10-09T15:03:55.442Z,54.75
2022-10-09T15:06:59.350Z,65.68
2022-10-09T15:10:02.951Z,65.30
2022-10-09T15:13:06.596Z,66.57
2022-10-09T15:16:14.029Z,70.85
2022-10-09T15:19:18.065Z,64.82
2022-10-09T15:22:22.059Z,68.93
2022-10-09T15:25:26.554Z,81.20
2022-10-09T15:28:30.302Z,70.65
2022-10-09T15:31:34.843Z,59.33
2022-10-09T15:34:41.014Z,56.67
2022-10-09T15:37:44.901Z,62.53
2022-10-09T15:40:56.425Z,59.50
2022-10-09T15:44:04.738Z,62.42
2022-10-09T15:50:11.856Z,59.13
2022-10-09T15:53:15.511Z,61.25
2022-10-09T15:56:25.643Z,56.58
2022-10-09T15:59:30.630Z,57.63
2022-10-09T16:02:34.232Z,60.65
2022-10-09T16:05:48.903Z,57.45
2022-10-09T16:08:57.084Z,63.65
2022-10-09T16:12:01.143Z,51.30
2022-10-09T16:15:05.143Z,48.45
2022-10-09T16:18:09.797Z,53.13
2022-10-09T16:21:17.504Z,51.92
2022-10-09T16:24:21.284Z,52.13
2022-10-09T16:27:25.462Z,50.65
2022-10-09T16:30:29.408Z,42.08
2022-10-09T16:33:33.500Z,60.95
2022-10-09T16:36:36.862Z,48.53
2022-10-09T16:39:41.086Z,46.08
2022-10-09T16:42:44.468Z,49.55
2022-10-09T16:45:49.271Z,50.45
2022-10-09T16:48:54.280Z,39.67
2022-10-09T16:51:57.391Z,37.22
2022-10-09T16:55:00.817Z,32.00
2022-10-09T16:58:05.185Z,27.20
2022-10-09T17:01:10.255Z,29.90
2022-10-09T17:04:15.681Z,28.70
2022-10-09T17:07:21.857Z,33.38
2022-10-09T17:10:25.256Z,32.88
2022-10-09T17:13:29.002Z,27.45
2022-10-09T17:16:35.981Z,16.60
2022-10-09T17:19:40.491Z,21.95
2022-10-09T17:22:44.636Z,20.55
2022-10-09T17:25:48.242Z,24.00
2022-10-09T17:28:52.203Z,19.55
2022-10-09T17:31:56.025Z,23.98
2022-10-09T17:34:59.256Z,23.35
2022-10-09T17:38:02.214Z,22.52
2022-10-09T17:41:11.541Z,23.30
2022-10-09T17:44:18.292Z,21.90
2022-10-09T17:47:22.114Z,23.33
2022-10-09T17:50:25.104Z,19.15
2022-10-09T17:53:29.365Z,18.95
2022-10-09T17:56:33.233Z,20.35
2022-10-09T17:59:37.982Z,23.40
2022-10-09T18:02:44.737Z,22.48
2022-10-09T18:05:50.929Z,22.40
2022-10-09T18:08:56.143Z,20.98
2022-10-09T18:12:00.523Z,17.35
2022-10-09T18:15:04.460Z,21.08
2022-10-09T18:18:08.267Z,20.80
2022-10-09T18:21:17.436Z,25.67
2022-10-09T18:24:21.415Z,20.50
2022-10-09T18:27:25.173Z,18.98
2022-10-09T18:30:29.213Z,28.20
2022-10-09T18:33:32.211Z,33.35
2022-10-09T18:36:36.604Z,28.55
2022-10-09T18:39:40.452Z,34.13
2022-10-09T18:42:43.941Z,39.00
2022-10-09T18:45:48.793Z,38.25
2022-10-09T18:48:55.136Z,40.55
2022-10-09T18:52:00.544Z,36.50
2022-10-09T18:55:04.592Z,34.42
2022-10-09T18:58:08.313Z,34.08
2022-10-09T19:01:12.183Z,34.45
2022-10-09T19:04:15.987Z,39.70
2022-10-09T19:07:19.862Z,37.60
2022-10-09T19:10:23.885Z,34.80
2022-10-09T19:13:27.907Z,48.13
2022-10-09T19:16:33.405Z,37.45
2022-10-09T19:19:38.696Z,39.03
2022-10-09T19:22:42.305Z,32.92
2022-10-09T19:25:55.360Z,27.98
2022-10-09T19:28:59.613Z,33.03
2022-10-09T19:32:02.988Z,34.53
2022-10-09T19:35:07.427Z,42.08
2022-10-09T19:38:11.459Z,39.83
2022-10-09T19:41:16.353Z,35.33
2022-10-09T19:44:20.881Z,39.47
2022-10-09T19:47:24.395Z,36.72
2022-10-09T19:50:28.576Z,34.95
2022-10-09T19:53:32.265Z,35.90
2022-10-09T19:56:37.634Z,17.77
2022-10-09T19:59:40.580Z,31.65
2022-10-09T20:02:44.471Z,29.63
2022-10-09T20:05:47.751Z,37.13
2022-10-09T20:08:51.931Z,31.42
2022-10-09T20:11:55.769Z,29.23
2022-10-09T20:14:59.102Z,35.50
2022-10-09T20:18:02.908Z,30.25
2022-10-09T20:21:06.883Z,29.73
2022-10-09T20:24:10.926Z,32.22
2022-10-09T20:27:14.597Z,31.00
2022-10-09T20:30:18.316Z,25.50
2022-10-09T20:33:22.223Z,25.92
2022-10-09T20:36:35.990Z,31.02
2022-10-09T20:39:39.308Z,30.33
2022-10-09T20:42:42.486Z,29.75
2022-10-09T20:45:47.262Z,24.73
2022-10-09T20:48:52.074Z,29.15
2022-10-09T20:51:57.329Z,25.38
2022-10-09T20:55:00.950Z,57.95
2022-10-09T20:58:04.114Z,59.53
2022-10-09T21:01:10.014Z,85.47
2022-10-09T21:04:15.363Z,71.45
2022-10-09T21:07:18.278Z,48.88
2022-10-09T21:10:21.566Z,45.53
2022-10-09T21:13:25.490Z,26.27
2022-10-09T21:16:29.406Z,26.30
2022-10-09T21:19:32.545Z,25.15
2022-10-09T21:22:35.718Z,17.77
2022-10-09T21:25:39.754Z,18.15
2022-10-09T21:28:44.631Z,24.40
2022-10-09T21:31:47.759Z,19.70
2022-10-09T21:34:51.771Z,17.13
2022-10-09T21:37:54.801Z,19.77
2022-10-09T21:40:58.841Z,20.35
2022-10-09T21:44:02.710Z,22.33
2022-10-09T21:47:06.644Z,22.00
2022-10-09T21:50:10.673Z,23.98
2022-10-09T21:53:14.866Z,21.05
2022-10-09T21:56:18.828Z,21.65
2022-10-09T21:59:23.053Z,27.73
2022-10-09T22:02:26.460Z,36.10
2022-10-09T22:05:30.542Z,30.88
2022-10-09T22:08:34.977Z,31.42
2022-10-09T22:11:38.586Z,37.20
2022-10-09T22:14:42.082Z,35.45
2022-10-09T22:17:45.903Z,57.65
2022-10-09T22:20:51.141Z,42.20
2022-10-09T22:23:55.264Z,45.63
2022-10-09T22:26:58.731Z,42.63
2022-10-09T22:30:02.861Z,40.50
2022-10-09T22:33:06.329Z,44.65
2022-10-09T22:36:15.507Z,36.25
2022-10-09T22:39:18.847Z,42.00
2022-10-09T22:42:22.802Z,39.15
2022-10-09T22:45:26.468Z,32.55
2022-10-09T22:48:30.369Z,28.77
2022-10-09T22:51:33.678Z,27.40
2022-10-09T22:54:37.532Z,35.72
2022-10-09T22:57:40.652Z,25.58
2022-10-09T23:00:44.771Z,28.35
2022-10-09T23:03:48.207Z,23.45
2022-10-09T23:06:54.578Z,29.73
2022-10-09T23:09:58.222Z,29.40
2022-10-09T23:13:02.332Z,27.10
2022-10-09T23:16:08.824Z,30.92
2022-10-09T23:19:12.368Z,33.22
2022-10-09T23:22:15.915Z,32.00
2022-10-09T23:25:19.762Z,31.90
2022-10-09T23:28:23.184Z,30.75
2022-10-09T23:31:28.076Z,36.13
2022-10-09T23:34:32.206Z,27.08
2022-10-09T23:37:35.849Z,36.60
2022-10-09T23:40:39.495Z,34.47
2022-10-09T23:43:44.755Z,29.98
2022-10-09T23:46:48.842Z,37.55
2022-10-09T23:49:52.446Z,72.63
2022-10-09T23:52:56.448Z,79.55
2022-10-09T23:56:00.110Z,54.45
2022-10-09T23:59:09.008Z,62.38
